sensor_id;sensor_type;location;lat;lon;timestamp;P1;durP1;ratioP1;P2;durP2;ratioP2
62030;SDS011;62035;52.094;5.112;2022-12-11T00:01:34;68.07;;;22.13;;
62030;SDS011;62035;52.094;5.112;2022-12-11T00:04:01;67.00;;;22.45;;
62030;SDS011;62035;52.094;5.112;2022-12-11T00:06:30;56.10;;;21.13;;
62030;SDS011;62035;52.094;5.112;2022-12-11T00:08:58;69.60;;;23.77;;
62030;SDS011;62035;52.094;5.112;2022-12-11T00:11:25;69.03;;;25.02;;
62030;SDS011;62035;52.094;5.112;2022-12-11T00:13:53;70.07;;;23.98;;
62030;SDS011;62035;52.094;5.112;2022-12-11T00:16:21;61.40;;;22.70;;
62030;SDS011;62035;52.094;5.112;2022-12-11T00:18:49;67.10;;;22.85;;
62030;SDS011;62035;52.094;5.112;2022-12-11T00:21:16;60.42;;;22.23;;
62030;SDS011;62035;52.094;5.112;2022-12-11T00:23:45;58.58;;;21.55;;
62030;SDS011;62035;52.094;5.112;2022-12-11T00:26:13;65.38;;;23.50;;
62030;SDS011;62035;52.094;5.112;2022-12-11T00:28:42;67.97;;;23.65;;
62030;SDS011;62035;52.094;5.112;2022-12-11T00:31:12;70.20;;;22.92;;
62030;SDS011;62035;52.094;5.112;2022-12-11T00:33:42;72.45;;;23.58;;
62030;SDS011;62035;52.094;5.112;2022-12-11T00:36:14;68.63;;;23.77;;
62030;SDS011;62035;52.094;5.112;2022-12-11T00:38:45;69.45;;;24.50;;
62030;SDS011;62035;52.094;5.112;2022-12-11T00:41:14;69.55;;;24.25;;
62030;SDS011;62035;52.094;5.112;2022-12-11T00:43:43;65.40;;;23.92;;
62030;SDS011;62035;52.094;5.112;2022-12-11T00:46:11;71.40;;;24.17;;
62030;SDS011;62035;52.094;5.112;2022-12-11T00:48:39;79.93;;;24.73;;
62030;SDS011;62035;52.094;5.112;2022-12-11T00:51:07;76.43;;;25.77;;
62030;SDS011;62035;52.094;5.112;2022-12-11T00:53:36;72.57;;;24.25;;
62030;SDS011;62035;52.094;5.112;2022-12-11T00:56:09;75.78;;;25.15;;
62030;SDS011;62035;52.094;5.112;2022-12-11T00:58:40;66.57;;;24.42;;
62030;SDS011;62035;52.094;5.112;2022-12-11T01:01:08;76.95;;;26.02;;
62030;SDS011;62035;52.094;5.112;2022-12-11T01:03:38;81.43;;;25.92;;
62030;SDS011;62035;52.094;5.112;2022-12-11T01:06:07;67.18;;;25.40;;
62030;SDS011;62035;52.094;5.112;2022-12-11T01:08:40;68.75;;;24.42;;
62030;SDS011;62035;52.094;5.112;2022-12-11T01:11:11;79.75;;;26.60;;
62030;SDS011;62035;52.094;5.112;2022-12-11T01:16:09;67.32;;;22.27;;
62030;SDS011;62035;52.094;5.112;2022-12-11T01:18:40;77.32;;;24.95;;
62030;SDS011;62035;52.094;5.112;2022-12-11T01:21:09;70.63;;;24.42;;
62030;SDS011;62035;52.094;5.112;2022-12-11T01:23:39;85.03;;;24.67;;
62030;SDS011;62035;52.094;5.112;2022-12-11T01:26:07;87.20;;;27.73;;
62030;SDS011;62035;52.094;5.112;2022-12-11T01:28:38;78.57;;;26.98;;
62030;SDS011;62035;52.094;5.112;2022-12-11T01:31:06;74.22;;;25.67;;
62030;SDS011;62035;52.094;5.112;2022-12-11T01:33:35;90.28;;;29.02;;
62030;SDS011;62035;52.094;5.112;2022-12-11T01:36:05;70.25;;;26.65;;
62030;SDS011;62035;52.094;5.112;2022-12-11T01:41:02;64.63;;;23.15;;
62030;SDS011;62035;52.094;5.112;2022-12-11T01:43:32;63.92;;;23.73;;
62030;SDS011;62035;52.094;5.112;2022-12-11T01:46:00;65.45;;;24.92;;
62030;SDS011;62035;52.094;5.112;2022-12-11T01:48:29;63.33;;;23.02;;
62030;SDS011;62035;52.094;5.112;2022-12-11T01:50:59;65.50;;;21.92;;
62030;SDS011;62035;52.094;5.112;2022-12-11T01:53:32;65.15;;;22.63;;
62030;SDS011;62035;52.094;5.112;2022-12-11T01:56:06;56.97;;;21.45;;
62030;SDS011;62035;52.094;5.112;2022-12-11T01:58:37;64.63;;;23.35;;
62030;SDS011;62035;52.094;5.112;2022-12-11T02:01:10;66.00;;;24.08;;
62030;SDS011;62035;52.094;5.112;2022-12-11T02:03:46;67.15;;;21.20;;
62030;SDS011;62035;52.094;5.112;2022-12-11T02:06:30;67.32;;;24.20;;
62030;SDS011;62035;52.094;5.112;2022-12-11T02:09:02;55.35;;;23.33;;
62030;SDS011;62035;52.094;5.112;2022-12-11T02:11:42;68.40;;;22.83;;
62030;SDS011;62035;52.094;5.112;2022-12-11T02:14:25;60.85;;;24.27;;
62030;SDS011;62035;52.094;5.112;2022-12-11T02:17:05;66.43;;;25.42;;
62030;SDS011;62035;52.094;5.112;2022-12-11T02:19:44;49.95;;;21.23;;
62030;SDS011;62035;52.094;5.112;2022-12-11T02:22:25;55.03;;;22.55;;
62030;SDS011;62035;52.094;5.112;2022-12-11T02:25:14;59.00;;;22.45;;
62030;SDS011;62035;52.094;5.112;2022-12-11T02:27:51;62.13;;;24.23;;
62030;SDS011;62035;52.094;5.112;2022-12-11T02:30:31;45.75;;;20.02;;
62030;SDS011;62035;52.094;5.112;2022-12-11T02:33:02;55.08;;;22.10;;
62030;SDS011;62035;52.094;5.112;2022-12-11T02:35:34;53.75;;;22.13;;
62030;SDS011;62035;52.094;5.112;2022-12-11T02:38:09;52.90;;;23.00;;
62030;SDS011;62035;52.094;5.112;2022-12-11T02:40:44;57.30;;;24.05;;
62030;SDS011;62035;52.094;5.112;2022-12-11T02:43:19;56.22;;;20.33;;
62030;SDS011;62035;52.094;5.112;2022-12-11T02:45:51;53.95;;;21.30;;
62030;SDS011;62035;52.094;5.112;2022-12-11T02:48:20;50.97;;;20.58;;
62030;SDS011;62035;52.094;5.112;2022-12-11T02:50:51;47.50;;;19.50;;
62030;SDS011;62035;52.094;5.112;2022-12-11T02:53:25;45.30;;;18.08;;
62030;SDS011;62035;52.094;5.112;2022-12-11T02:55:58;46.97;;;18.77;;
62030;SDS011;62035;52.094;5.112;2022-12-11T02:58:38;36.33;;;17.25;;
62030;SDS011;62035;52.094;5.112;2022-12-11T03:01:14;38.33;;;17.92;;
62030;SDS011;62035;52.094;5.112;2022-12-11T03:03:42;39.97;;;17.45;;
62030;SDS011;62035;52.094;5.112;2022-12-11T03:06:10;38.13;;;17.88;;
62030;SDS011;62035;52.094;5.112;2022-12-11T03:08:46;38.13;;;16.13;;
62030;SDS011;62035;52.094;5.112;2022-12-11T03:11:16;33.33;;;15.25;;
62030;SDS011;62035;52.094;5.112;2022-12-11T03:13:45;37.63;;;17.50;;
62030;SDS011;62035;52.094;5.112;2022-12-11T03:16:14;40.53;;;16.50;;
62030;SDS011;62035;52.094;5.112;2022-12-11T03:18:57;35.65;;;16.48;;
62030;SDS011;62035;52.094;5.112;2022-12-11T03:21:39;30.77;;;15.82;;
62030;SDS011;62035;52.094;5.112;2022-12-11T03:24:19;33.28;;;16.15;;
62030;SDS011;62035;52.094;5.112;2022-12-11T03:26:57;32.22;;;15.75;;
62030;SDS011;62035;52.094;5.112;2022-12-11T03:29:44;33.20;;;16.27;;
62030;SDS011;62035;52.094;5.112;2022-12-11T03:32:23;29.92;;;14.80;;
62030;SDS011;62035;52.094;5.112;2022-12-11T03:34:58;37.53;;;17.70;;
62030;SDS011;62035;52.094;5.112;2022-12-11T03:37:33;33.28;;;16.92;;
62030;SDS011;62035;52.094;5.112;2022-12-11T03:40:08;31.30;;;15.23;;
62030;SDS011;62035;52.094;5.112;2022-12-11T03:42:41;33.97;;;16.13;;
62030;SDS011;62035;52.094;5.112;2022-12-11T03:45:14;33.80;;;15.77;;
62030;SDS011;62035;52.094;5.112;2022-12-11T03:47:45;29.55;;;14.60;;
62030;SDS011;62035;52.094;5.112;2022-12-11T03:50:14;33.75;;;15.85;;
62030;SDS011;62035;52.094;5.112;2022-12-11T03:52:47;30.10;;;14.82;;
62030;SDS011;62035;52.094;5.112;2022-12-11T03:55:16;34.60;;;14.95;;
62030;SDS011;62035;52.094;5.112;2022-12-11T03:57:48;34.25;;;15.63;;
62030;SDS011;62035;52.094;5.112;2022-12-11T04:00:18;31.27;;;15.02;;
62030;SDS011;62035;52.094;5.112;2022-12-11T04:02:48;35.70;;;16.13;;
62030;SDS011;62035;52.094;5.112;2022-12-11T04:05:35;30.98;;;14.93;;
62030;SDS011;62035;52.094;5.112;2022-12-11T04:08:03;32.80;;;16.13;;
62030;SDS011;62035;52.094;5.112;2022-12-11T04:10:31;27.38;;;13.63;;
62030;SDS011;62035;52.094;5.112;2022-12-11T04:12:59;30.80;;;15.32;;
62030;SDS011;62035;52.094;5.112;2022-12-11T04:15:28;31.42;;;15.20;;
62030;SDS011;62035;52.094;5.112;2022-12-11T04:17:54;33.63;;;16.13;;
62030;SDS011;62035;52.094;5.112;2022-12-11T04:20:40;30.58;;;15.23;;
62030;SDS011;62035;52.094;5.112;2022-12-11T04:23:25;31.45;;;15.48;;
62030;SDS011;62035;52.094;5.112;2022-12-11T04:26:11;35.35;;;18.30;;
62030;SDS011;62035;52.094;5.112;2022-12-11T04:28:42;33.53;;;16.15;;
62030;SDS011;62035;52.094;5.112;2022-12-11T04:31:13;34.50;;;15.95;;
62030;SDS011;62035;52.094;5.112;2022-12-11T04:33:44;29.15;;;15.25;;
62030;SDS011;62035;52.094;5.112;2022-12-11T04:36:12;36.03;;;16.65;;
62030;SDS011;62035;52.094;5.112;2022-12-11T04:38:41;33.72;;;16.65;;
62030;SDS011;62035;52.094;5.112;2022-12-11T04:41:10;30.90;;;15.43;;
62030;SDS011;62035;52.094;5.112;2022-12-11T04:43:39;35.38;;;15.60;;
62030;SDS011;62035;52.094;5.112;2022-12-11T04:46:11;31.05;;;15.95;;
62030;SDS011;62035;52.094;5.112;2022-12-11T04:48:43;29.05;;;15.40;;
62030;SDS011;62035;52.094;5.112;2022-12-11T04:51:12;33.72;;;16.55;;
62030;SDS011;62035;52.094;5.112;2022-12-11T04:53:41;30.17;;;15.65;;
62030;SDS011;62035;52.094;5.112;2022-12-11T04:56:09;31.00;;;16.55;;
62030;SDS011;62035;52.094;5.112;2022-12-11T04:58:39;34.88;;;16.17;;
62030;SDS011;62035;52.094;5.112;2022-12-11T05:01:09;48.38;;;21.67;;
62030;SDS011;62035;52.094;5.112;2022-12-11T05:03:40;33.13;;;17.65;;
62030;SDS011;62035;52.094;5.112;2022-12-11T05:06:09;33.10;;;15.48;;
62030;SDS011;62035;52.094;5.112;2022-12-11T05:08:38;29.48;;;15.50;;
62030;SDS011;62035;52.094;5.112;2022-12-11T05:11:09;31.15;;;15.27;;
62030;SDS011;62035;52.094;5.112;2022-12-11T05:13:38;32.13;;;15.07;;
62030;SDS011;62035;52.094;5.112;2022-12-11T05:16:06;30.85;;;14.80;;
62030;SDS011;62035;52.094;5.112;2022-12-11T05:18:38;32.70;;;15.65;;
62030;SDS011;62035;52.094;5.112;2022-12-11T05:21:06;28.80;;;15.05;;
62030;SDS011;62035;52.094;5.112;2022-12-11T05:23:36;29.83;;;15.48;;
62030;SDS011;62035;52.094;5.112;2022-12-11T05:26:05;32.65;;;16.75;;
62030;SDS011;62035;52.094;5.112;2022-12-11T05:28:35;31.60;;;14.80;;
62030;SDS011;62035;52.094;5.112;2022-12-11T05:31:06;32.40;;;15.48;;
62030;SDS011;62035;52.094;5.112;2022-12-11T05:33:39;35.20;;;15.50;;
62030;SDS011;62035;52.094;5.112;2022-12-11T05:36:08;27.95;;;14.48;;
62030;SDS011;62035;52.094;5.112;2022-12-11T05:38:42;31.20;;;14.48;;
62030;SDS011;62035;52.094;5.112;2022-12-11T05:41:11;30.83;;;15.10;;
62030;SDS011;62035;52.094;5.112;2022-12-11T05:43:40;38.22;;;15.98;;
62030;SDS011;62035;52.094;5.112;2022-12-11T05:46:09;32.30;;;15.45;;
62030;SDS011;62035;52.094;5.112;2022-12-11T05:48:41;32.92;;;13.85;;
62030;SDS011;62035;52.094;5.112;2022-12-11T05:51:11;36.17;;;16.02;;
62030;SDS011;62035;52.094;5.112;2022-12-11T05:53:41;30.52;;;14.30;;
62030;SDS011;62035;52.094;5.112;2022-12-11T05:56:10;32.38;;;15.57;;
62030;SDS011;62035;52.094;5.112;2022-12-11T05:58:41;36.58;;;16.08;;
62030;SDS011;62035;52.094;5.112;2022-12-11T06:01:11;31.48;;;15.95;;
62030;SDS011;62035;52.094;5.112;2022-12-11T06:03:43;35.67;;;15.02;;
62030;SDS011;62035;52.094;5.112;2022-12-11T06:06:11;36.55;;;15.18;;
62030;SDS011;62035;52.094;5.112;2022-12-11T06:08:39;29.02;;;13.75;;
62030;SDS011;62035;52.094;5.112;2022-12-11T06:11:07;31.17;;;14.32;;
62030;SDS011;62035;52.094;5.112;2022-12-11T06:13:35;28.60;;;15.32;;
62030;SDS011;62035;52.094;5.112;2022-12-11T06:16:03;34.78;;;15.10;;
62030;SDS011;62035;52.094;5.112;2022-12-11T06:18:34;32.05;;;16.15;;
62030;SDS011;62035;52.094;5.112;2022-12-11T06:21:11;31.88;;;15.15;;
62030;SDS011;62035;52.094;5.112;2022-12-11T06:23:41;33.17;;;15.70;;
62030;SDS011;62035;52.094;5.112;2022-12-11T06:26:10;32.35;;;15.48;;
62030;SDS011;62035;52.094;5.112;2022-12-11T06:28:38;28.90;;;13.75;;
62030;SDS011;62035;52.094;5.112;2022-12-11T06:31:06;33.38;;;14.60;;
62030;SDS011;62035;52.094;5.112;2022-12-11T06:33:34;31.75;;;14.68;;
62030;SDS011;62035;52.094;5.112;2022-12-11T06:36:02;31.08;;;15.50;;
62030;SDS011;62035;52.094;5.112;2022-12-11T06:38:33;29.63;;;14.77;;
62030;SDS011;62035;52.094;5.112;2022-12-11T06:41:02;32.58;;;15.80;;
62030;SDS011;62035;52.094;5.112;2022-12-11T06:43:32;30.65;;;14.98;;
62030;SDS011;62035;52.094;5.112;2022-12-11T06:46:02;30.65;;;14.30;;
62030;SDS011;62035;52.094;5.112;2022-12-11T06:48:31;33.50;;;15.10;;
62030;SDS011;62035;52.094;5.112;2022-12-11T06:51:03;35.22;;;15.98;;
62030;SDS011;62035;52.094;5.112;2022-12-11T06:53:34;32.25;;;15.15;;
62030;SDS011;62035;52.094;5.112;2022-12-11T06:56:02;33.85;;;16.20;;
62030;SDS011;62035;52.094;5.112;2022-12-11T06:58:32;32.60;;;15.25;;
62030;SDS011;62035;52.094;5.112;2022-12-11T07:01:01;34.10;;;15.43;;
62030;SDS011;62035;52.094;5.112;2022-12-11T07:03:30;33.75;;;15.35;;
62030;SDS011;62035;52.094;5.112;2022-12-11T07:05:59;40.13;;;17.20;;
62030;SDS011;62035;52.094;5.112;2022-12-11T07:08:28;33.13;;;15.88;;
62030;SDS011;62035;52.094;5.112;2022-12-11T07:11:02;35.70;;;16.60;;
62030;SDS011;62035;52.094;5.112;2022-12-11T07:13:30;32.95;;;16.70;;
62030;SDS011;62035;52.094;5.112;2022-12-11T07:15:59;35.08;;;16.05;;
62030;SDS011;62035;52.094;5.112;2022-12-11T07:18:29;28.13;;;13.77;;
62030;SDS011;62035;52.094;5.112;2022-12-11T07:20:58;35.22;;;15.27;;
62030;SDS011;62035;52.094;5.112;2022-12-11T07:23:26;31.83;;;15.32;;
62030;SDS011;62035;52.094;5.112;2022-12-11T07:25:54;36.28;;;16.35;;
62030;SDS011;62035;52.094;5.112;2022-12-11T07:28:24;37.40;;;15.20;;
62030;SDS011;62035;52.094;5.112;2022-12-11T07:30:52;35.50;;;15.48;;
62030;SDS011;62035;52.094;5.112;2022-12-11T07:33:20;24.80;;;13.52;;
62030;SDS011;62035;52.094;5.112;2022-12-11T07:35:47;28.38;;;13.90;;
62030;SDS011;62035;52.094;5.112;2022-12-11T07:38:15;27.30;;;12.27;;
62030;SDS011;62035;52.094;5.112;2022-12-11T07:40:42;26.15;;;13.02;;
62030;SDS011;62035;52.094;5.112;2022-12-11T07:43:10;30.35;;;13.75;;
62030;SDS011;62035;52.094;5.112;2022-12-11T07:45:39;29.10;;;14.70;;
62030;SDS011;62035;52.094;5.112;2022-12-11T07:48:07;28.50;;;13.68;;
62030;SDS011;62035;52.094;5.112;2022-12-11T07:50:35;31.50;;;14.95;;
62030;SDS011;62035;52.094;5.112;2022-12-11T07:53:02;30.98;;;14.50;;
62030;SDS011;62035;52.094;5.112;2022-12-11T07:55:30;28.63;;;14.38;;
62030;SDS011;62035;52.094;5.112;2022-12-11T07:57:58;33.83;;;14.93;;
62030;SDS011;62035;52.094;5.112;2022-12-11T08:00:25;31.30;;;14.68;;
62030;SDS011;62035;52.094;5.112;2022-12-11T08:02:54;33.60;;;15.50;;
62030;SDS011;62035;52.094;5.112;2022-12-11T08:05:22;30.40;;;14.75;;
62030;SDS011;62035;52.094;5.112;2022-12-11T08:07:50;33.08;;;15.05;;
62030;SDS011;62035;52.094;5.112;2022-12-11T08:10:17;30.90;;;13.50;;
62030;SDS011;62035;52.094;5.112;2022-12-11T08:12:45;29.45;;;14.32;;
62030;SDS011;62035;52.094;5.112;2022-12-11T08:15:13;33.40;;;14.50;;
62030;SDS011;62035;52.094;5.112;2022-12-11T08:17:41;28.92;;;15.15;;
62030;SDS011;62035;52.094;5.112;2022-12-11T08:20:10;32.38;;;14.77;;
62030;SDS011;62035;52.094;5.112;2022-12-11T08:22:37;27.73;;;15.20;;
62030;SDS011;62035;52.094;5.112;2022-12-11T08:25:05;34.33;;;14.98;;
62030;SDS011;62035;52.094;5.112;2022-12-11T08:27:34;29.05;;;13.73;;
62030;SDS011;62035;52.094;5.112;2022-12-11T08:30:02;30.00;;;14.57;;
62030;SDS011;62035;52.094;5.112;2022-12-11T08:32:31;31.95;;;15.57;;
62030;SDS011;62035;52.094;5.112;2022-12-11T08:34:58;30.60;;;14.07;;
62030;SDS011;62035;52.094;5.112;2022-12-11T08:37:27;27.27;;;13.23;;
62030;SDS011;62035;52.094;5.112;2022-12-11T08:39:55;28.27;;;14.32;;
62030;SDS011;62035;52.094;5.112;2022-12-11T08:42:23;27.08;;;12.90;;
62030;SDS011;62035;52.094;5.112;2022-12-11T08:44:50;23.33;;;12.73;;
62030;SDS011;62035;52.094;5.112;2022-12-11T08:47:18;24.33;;;12.63;;
62030;SDS011;62035;52.094;5.112;2022-12-11T08:49:45;29.00;;;13.80;;
62030;SDS011;62035;52.094;5.112;2022-12-11T08:52:13;23.67;;;13.07;;
62030;SDS011;62035;52.094;5.112;2022-12-11T08:54:42;28.20;;;14.82;;
62030;SDS011;62035;52.094;5.112;2022-12-11T08:57:10;27.98;;;14.43;;
62030;SDS011;62035;52.094;5.112;2022-12-11T08:59:38;28.80;;;14.93;;
62030;SDS011;62035;52.094;5.112;2022-12-11T09:02:06;29.42;;;15.18;;
62030;SDS011;62035;52.094;5.112;2022-12-11T09:04:38;33.22;;;15.75;;
62030;SDS011;62035;52.094;5.112;2022-12-11T09:07:06;33.80;;;16.63;;
62030;SDS011;62035;52.094;5.112;2022-12-11T09:09:33;28.40;;;16.17;;
62030;SDS011;62035;52.094;5.112;2022-12-11T09:12:02;28.38;;;15.52;;
62030;SDS011;62035;52.094;5.112;2022-12-11T09:14:30;31.70;;;16.02;;
62030;SDS011;62035;52.094;5.112;2022-12-11T09:16:58;32.92;;;15.45;;
62030;SDS011;62035;52.094;5.112;2022-12-11T09:19:26;30.00;;;15.45;;
62030;SDS011;62035;52.094;5.112;2022-12-11T09:21:53;33.10;;;15.70;;
62030;SDS011;62035;52.094;5.112;2022-12-11T09:24:21;32.28;;;16.10;;
62030;SDS011;62035;52.094;5.112;2022-12-11T09:26:49;31.58;;;15.45;;
62030;SDS011;62035;52.094;5.112;2022-12-11T09:29:18;33.65;;;16.80;;
62030;SDS011;62035;52.094;5.112;2022-12-11T09:31:45;28.92;;;14.73;;
62030;SDS011;62035;52.094;5.112;2022-12-11T09:34:14;34.15;;;16.40;;
62030;SDS011;62035;52.094;5.112;2022-12-11T09:36:42;31.63;;;15.98;;
62030;SDS011;62035;52.094;5.112;2022-12-11T09:39:10;31.95;;;16.00;;
62030;SDS011;62035;52.094;5.112;2022-12-11T09:41:41;34.90;;;16.55;;
62030;SDS011;62035;52.094;5.112;2022-12-11T09:44:29;31.27;;;15.68;;
62030;SDS011;62035;52.094;5.112;2022-12-11T09:47:08;32.45;;;17.02;;
62030;SDS011;62035;52.094;5.112;2022-12-11T09:49:48;28.63;;;14.90;;
62030;SDS011;62035;52.094;5.112;2022-12-11T09:52:25;29.70;;;15.68;;
62030;SDS011;62035;52.094;5.112;2022-12-11T09:55:01;31.92;;;15.52;;
62030;SDS011;62035;52.094;5.112;2022-12-11T09:57:41;33.13;;;15.45;;
62030;SDS011;62035;52.094;5.112;2022-12-11T10:00:27;32.15;;;16.50;;
62030;SDS011;62035;52.094;5.112;2022-12-11T10:03:08;28.58;;;14.65;;
62030;SDS011;62035;52.094;5.112;2022-12-11T10:06:11;28.17;;;13.82;;
62030;SDS011;62035;52.094;5.112;2022-12-11T10:08:52;33.15;;;15.60;;
62030;SDS011;62035;52.094;5.112;2022-12-11T10:11:39;34.53;;;15.70;;
62030;SDS011;62035;52.094;5.112;2022-12-11T10:14:45;31.27;;;16.00;;
62030;SDS011;62035;52.094;5.112;2022-12-11T10:17:43;29.92;;;14.73;;
62030;SDS011;62035;52.094;5.112;2022-12-11T10:20:17;27.17;;;14.18;;
62030;SDS011;62035;52.094;5.112;2022-12-11T10:22:51;30.40;;;14.20;;
62030;SDS011;62035;52.094;5.112;2022-12-11T10:25:24;30.15;;;14.25;;
62030;SDS011;62035;52.094;5.112;2022-12-11T10:27:56;24.67;;;12.93;;
62030;SDS011;62035;52.094;5.112;2022-12-11T10:30:26;29.85;;;13.80;;
62030;SDS011;62035;52.094;5.112;2022-12-11T10:33:05;24.75;;;13.00;;
62030;SDS011;62035;52.094;5.112;2022-12-11T10:35:47;23.67;;;12.32;;
62030;SDS011;62035;52.094;5.112;2022-12-11T10:38:23;28.20;;;13.45;;
62030;SDS011;62035;52.094;5.112;2022-12-11T10:40:56;30.23;;;13.43;;
62030;SDS011;62035;52.094;5.112;2022-12-11T10:43:33;25.48;;;13.73;;
62030;SDS011;62035;52.094;5.112;2022-12-11T10:46:04;26.30;;;12.18;;
62030;SDS011;62035;52.094;5.112;2022-12-11T10:48:45;25.23;;;13.55;;
62030;SDS011;62035;52.094;5.112;2022-12-11T10:51:15;25.15;;;12.10;;
62030;SDS011;62035;52.094;5.112;2022-12-11T10:53:47;25.92;;;13.07;;
62030;SDS011;62035;52.094;5.112;2022-12-11T10:56:23;25.80;;;12.40;;
62030;SDS011;62035;52.094;5.112;2022-12-11T10:58:53;24.42;;;12.93;;
62030;SDS011;62035;52.094;5.112;2022-12-11T11:01:23;24.50;;;12.02;;
62030;SDS011;62035;52.094;5.112;2022-12-11T11:03:57;26.50;;;12.63;;
62030;SDS011;62035;52.094;5.112;2022-12-11T11:06:30;23.20;;;11.95;;
62030;SDS011;62035;52.094;5.112;2022-12-11T11:09:00;22.35;;;11.45;;
62030;SDS011;62035;52.094;5.112;2022-12-11T11:11:30;22.52;;;11.05;;
62030;SDS011;62035;52.094;5.112;2022-12-11T11:14:12;24.48;;;12.23;;
62030;SDS011;62035;52.094;5.112;2022-12-11T11:16:43;26.98;;;12.50;;
62030;SDS011;62035;52.094;5.112;2022-12-11T11:19:18;23.88;;;12.75;;
62030;SDS011;62035;52.094;5.112;2022-12-11T11:21:50;23.63;;;11.80;;
62030;SDS011;62035;52.094;5.112;2022-12-11T11:24:27;24.58;;;12.55;;
62030;SDS011;62035;52.094;5.112;2022-12-11T11:27:06;23.25;;;12.20;;
62030;SDS011;62035;52.094;5.112;2022-12-11T11:29:40;24.75;;;13.13;;
62030;SDS011;62035;52.094;5.112;2022-12-11T11:32:13;26.77;;;13.40;;
62030;SDS011;62035;52.094;5.112;2022-12-11T11:34:47;25.20;;;13.05;;
62030;SDS011;62035;52.094;5.112;2022-12-11T11:37:21;26.73;;;13.52;;
62030;SDS011;62035;52.094;5.112;2022-12-11T11:39:56;27.80;;;13.18;;
62030;SDS011;62035;52.094;5.112;2022-12-11T11:42:36;29.38;;;14.57;;
62030;SDS011;62035;52.094;5.112;2022-12-11T11:45:13;25.50;;;13.05;;
62030;SDS011;62035;52.094;5.112;2022-12-11T11:47:48;29.42;;;12.77;;
62030;SDS011;62035;52.094;5.112;2022-12-11T11:50:31;23.55;;;12.52;;
62030;SDS011;62035;52.094;5.112;2022-12-11T11:53:02;26.30;;;13.13;;
62030;SDS011;62035;52.094;5.112;2022-12-11T11:55:40;27.55;;;13.10;;
62030;SDS011;62035;52.094;5.112;2022-12-11T11:58:21;25.63;;;13.63;;
62030;SDS011;62035;52.094;5.112;2022-12-11T12:00:59;22.90;;;11.90;;
62030;SDS011;62035;52.094;5.112;2022-12-11T12:03:26;23.08;;;12.80;;
62030;SDS011;62035;52.094;5.112;2022-12-11T12:05:59;25.13;;;12.88;;
62030;SDS011;62035;52.094;5.112;2022-12-11T12:08:40;27.80;;;13.90;;
62030;SDS011;62035;52.094;5.112;2022-12-11T12:11:19;27.65;;;13.43;;
62030;SDS011;62035;52.094;5.112;2022-12-11T12:14:02;28.38;;;13.18;;
62030;SDS011;62035;52.094;5.112;2022-12-11T12:16:44;25.58;;;12.82;;
62030;SDS011;62035;52.094;5.112;2022-12-11T12:19:31;25.48;;;12.57;;
62030;SDS011;62035;52.094;5.112;2022-12-11T12:22:17;28.30;;;13.15;;
62030;SDS011;62035;52.094;5.112;2022-12-11T12:25:04;34.88;;;14.10;;
62030;SDS011;62035;52.094;5.112;2022-12-11T12:27:45;31.05;;;13.07;;
62030;SDS011;62035;52.094;5.112;2022-12-11T12:30:24;29.90;;;13.82;;
62030;SDS011;62035;52.094;5.112;2022-12-11T12:33:10;32.65;;;13.90;;
62030;SDS011;62035;52.094;5.112;2022-12-11T12:35:51;30.95;;;13.25;;
62030;SDS011;62035;52.094;5.112;2022-12-11T12:38:34;29.38;;;14.45;;
62030;SDS011;62035;52.094;5.112;2022-12-11T12:41:13;34.28;;;15.80;;
62030;SDS011;62035;52.094;5.112;2022-12-11T12:46:55;38.47;;;15.43;;
62030;SDS011;62035;52.094;5.112;2022-12-11T12:49:28;33.55;;;15.23;;
62030;SDS011;62035;52.094;5.112;2022-12-11T12:52:03;33.70;;;15.30;;
62030;SDS011;62035;52.094;5.112;2022-12-11T12:54:39;32.15;;;15.55;;
62030;SDS011;62035;52.094;5.112;2022-12-11T12:57:30;34.25;;;15.32;;
62030;SDS011;62035;52.094;5.112;2022-12-11T13:00:00;31.73;;;14.02;;
62030;SDS011;62035;52.094;5.112;2022-12-11T13:02:29;37.28;;;15.90;;
62030;SDS011;62035;52.094;5.112;2022-12-11T13:04:59;36.83;;;15.40;;
62030;SDS011;62035;52.094;5.112;2022-12-11T13:07:47;39.92;;;15.38;;
62030;SDS011;62035;52.094;5.112;2022-12-11T13:10:23;35.00;;;15.45;;
62030;SDS011;62035;52.094;5.112;2022-12-11T13:12:56;36.45;;;15.95;;
62030;SDS011;62035;52.094;5.112;2022-12-11T13:15:26;36.70;;;15.68;;
62030;SDS011;62035;52.094;5.112;2022-12-11T13:18:00;38.10;;;15.57;;
62030;SDS011;62035;52.094;5.112;2022-12-11T13:20:31;35.93;;;15.77;;
62030;SDS011;62035;52.094;5.112;2022-12-11T13:23:07;35.63;;;15.13;;
62030;SDS011;62035;52.094;5.112;2022-12-11T13:25:54;41.65;;;16.52;;
62030;SDS011;62035;52.094;5.112;2022-12-11T13:28:25;33.22;;;14.63;;
62030;SDS011;62035;52.094;5.112;2022-12-11T13:30:58;36.28;;;15.38;;
62030;SDS011;62035;52.094;5.112;2022-12-11T13:33:29;34.03;;;15.85;;
62030;SDS011;62035;52.094;5.112;2022-12-11T13:36:14;48.10;;;16.50;;
62030;SDS011;62035;52.094;5.112;2022-12-11T13:38:54;37.95;;;15.90;;
62030;SDS011;62035;52.094;5.112;2022-12-11T13:41:28;36.58;;;15.93;;
62030;SDS011;62035;52.094;5.112;2022-12-11T13:44:01;38.03;;;16.67;;
62030;SDS011;62035;52.094;5.112;2022-12-11T13:46:33;39.65;;;17.05;;
62030;SDS011;62035;52.094;5.112;2022-12-11T13:49:04;33.75;;;14.82;;
62030;SDS011;62035;52.094;5.112;2022-12-11T13:51:49;36.53;;;16.77;;
62030;SDS011;62035;52.094;5.112;2022-12-11T13:54:20;36.92;;;15.38;;
62030;SDS011;62035;52.094;5.112;2022-12-11T13:59:45;31.92;;;14.75;;
62030;SDS011;62035;52.094;5.112;2022-12-11T14:02:18;37.50;;;15.85;;
62030;SDS011;62035;52.094;5.112;2022-12-11T14:09:54;36.50;;;15.13;;
62030;SDS011;62035;52.094;5.112;2022-12-11T14:12:29;34.97;;;15.35;;
62030;SDS011;62035;52.094;5.112;2022-12-11T14:14:58;38.30;;;15.13;;
62030;SDS011;62035;52.094;5.112;2022-12-11T14:17:31;44.88;;;16.77;;
62030;SDS011;62035;52.094;5.112;2022-12-11T14:20:02;40.60;;;15.40;;
62030;SDS011;62035;52.094;5.112;2022-12-11T14:22:33;36.20;;;15.25;;
62030;SDS011;62035;52.094;5.112;2022-12-11T14:25:01;31.33;;;15.20;;
62030;SDS011;62035;52.094;5.112;2022-12-11T14:27:47;33.33;;;15.35;;
62030;SDS011;62035;52.094;5.112;2022-12-11T14:30:21;34.35;;;14.77;;
62030;SDS011;62035;52.094;5.112;2022-12-11T14:32:52;32.63;;;14.68;;
62030;SDS011;62035;52.094;5.112;2022-12-11T14:35:25;38.85;;;16.75;;
62030;SDS011;62035;52.094;5.112;2022-12-11T14:37:56;35.95;;;15.55;;
62030;SDS011;62035;52.094;5.112;2022-12-11T14:40:30;30.65;;;14.50;;
62030;SDS011;62035;52.094;5.112;2022-12-11T14:43:06;34.25;;;14.38;;
62030;SDS011;62035;52.094;5.112;2022-12-11T14:45:41;36.63;;;16.30;;
62030;SDS011;62035;52.094;5.112;2022-12-11T14:48:12;33.35;;;15.65;;
62030;SDS011;62035;52.094;5.112;2022-12-11T14:50:48;35.72;;;15.65;;
62030;SDS011;62035;52.094;5.112;2022-12-11T14:55:51;37.88;;;14.40;;
62030;SDS011;62035;52.094;5.112;2022-12-11T14:58:24;34.13;;;15.68;;
62030;SDS011;62035;52.094;5.112;2022-12-11T15:00:57;37.50;;;16.15;;
62030;SDS011;62035;52.094;5.112;2022-12-11T15:03:29;36.58;;;16.10;;
62030;SDS011;62035;52.094;5.112;2022-12-11T15:05:59;33.10;;;15.38;;
62030;SDS011;62035;52.094;5.112;2022-12-11T15:08:30;38.45;;;16.15;;
62030;SDS011;62035;52.094;5.112;2022-12-11T15:11:02;35.75;;;14.88;;